• Join FlightAware (Why Join?)
  • Login
  • US Flag 
05:12PM EDT


 

Airport Tracker/Info


-or-


 

Live Flight TrackerFlight Track Log ✈ SWA2955 ✈ 17-Apr-2013 ✈ KMCO - KISP

Flight Track Log - Related Links

Times and Time Zones

All times are in EDT time to prevent confusion due to time zone crossing. See the SWA2955 flight status page for this flight to view local times or setup timezone preferences in your user account.

Time Position Orientation Groundspeed Altitude Reporting Facility
EDT Latitude Longitude Course Direction KTS MPH feet Rate Location/Type
01:29PM 28.4667 -81.2833 31° Northeast 195 224 2,300  Level Orlando TRACON
01:30PM 28.5333 -81.2500 24° Northeast 247 284 4,400 2,400 Climbing Orlando TRACON
01:31PM 28.6000 -81.2500 360° North 283 326 7,200 2,760 Climbing Orlando TRACON
01:32PM 28.6833 -81.2667 350° North 288 331 10,000 2,460 Climbing Orlando TRACON
01:34PM 28.8497 -81.3208 344° North 330 380 14,200 2,460 Climbing Jacksonville Center
01:35PM 28.9483 -81.3478 347° North 342 394 16,900 2,640 Climbing Jacksonville Center
01:36PM 29.0508 -81.3772 346° North 362 417 19,500 2,700 Climbing Jacksonville Center
01:37PM 29.1597 -81.3944 352° North 374 430 22,300 2,280 Climbing Jacksonville Center
01:38PM 29.2706 -81.4142 351° North 392 451 24,100 2,040 Climbing Jacksonville Center
01:39PM 29.3917 -81.4194 358° North 410 472 26,400 2,340 Climbing Jacksonville Center
01:40PM 29.5108 -81.4297 356° North 421 484 28,800 1,920 Climbing Jacksonville Center
01:41PM 29.6319 -81.4447 354° North 426 490 30,300 1,620 Climbing Jacksonville Center
01:42PM 29.7553 -81.4572 355° North 431 496 32,100 1,800 Climbing Jacksonville Center
01:43PM 29.8764 -81.4625 358° North 431 496 33,900 1,680 Climbing Jacksonville Center
01:44PM 29.9972 -81.4417 North 431 496 35,500 1,440 Climbing Jacksonville Center
01:45PM 30.1181 -81.4158 10° North 431 496 36,800 1,200 Climbing Jacksonville Center
01:46PM 30.2389 -81.3897 11° North 436 502 38,000 900 Climbing Jacksonville Center
01:47PM 30.3639 -81.3686 North 441 507 38,600 480 Climbing Jacksonville Center
01:48PM 30.4908 -81.3425 10° North 447 514 39,000 180 Climbing Jacksonville Center
01:49PM 30.6158 -81.3189 North 447 514 39,000  Level Jacksonville Center
01:50PM 30.7408 -81.2925 10° North 447 514 39,000  Level Jacksonville Center
01:51PM 30.8681 -81.2686 North 447 514 39,000  Level Jacksonville Center
01:52PM 30.9908 -81.2447 North 447 514 39,000  Level Jacksonville Center
01:53PM 31.1156 -81.2108 13° North 441 507 39,000  Level Jacksonville Center
01:54PM 31.2294 -81.1383 29° Northeast 449 517 39,000  Level Jacksonville Center
01:55PM 31.3411 -81.0683 28° Northeast 454 522 39,000  Level Jacksonville Center
01:56PM 31.4528 -80.9931 30° Northeast 461 531 39,000  Level Jacksonville Center
01:57PM 31.5519 -80.9253 30° Northeast 455 524 39,000  Level Jacksonville Center
01:58PM 31.6742 -80.8494 28° Northeast 455 524 39,000  Level Jacksonville Center
01:59PM 31.7814 -80.7786 29° Northeast 449 517 39,000  Level Jacksonville Center
02:00PM 31.8825 -80.7125 29° Northeast 449 517 39,000  Level Jacksonville Center
02:01PM 32.0044 -80.6339 29° Northeast 454 522 39,000  Level Jacksonville Center
02:02PM 32.1056 -80.5675 29° Northeast 454 522 39,000  Level Jacksonville Center
02:03PM 32.2250 -80.4858 30° Northeast 454 522 39,000  Level Jacksonville Center
02:04PM 32.3344 -80.4142 29° Northeast 454 522 39,000  Level Jacksonville Center
02:05PM 32.4456 -80.3397 29° Northeast 454 522 39,000  Level Jacksonville Center
02:06PM 32.5547 -80.2653 30° Northeast 454 522 39,000  Level Jacksonville Center
02:07PM 32.6639 -80.1931 29° Northeast 454 522 39,000  Level Jacksonville Center
02:08PM 32.7769 -80.1181 29° Northeast 454 522 39,000  Level Jacksonville Center
02:09PM 32.8881 -80.0403 30° Northeast 454 522 39,000  Level Jacksonville Center
02:10PM 32.9800 -79.9508 39° Northeast 466 536 39,000  Level Jacksonville Center
02:11PM 33.0800 -79.8558 39° Northeast 466 536 39,000  Level Jacksonville Center
02:12PM 33.1839 -79.7581 38° Northeast 471 542 39,000  Level Jacksonville Center
02:13PM 33.2836 -79.6600 39° Northeast 466 536 39,000  Level Jacksonville Center
02:14PM 33.3856 -79.5642 38° Northeast 466 536 39,000  Level Jacksonville Center
02:15PM 33.4850 -79.4608 41° Northeast 466 536 39,000  Level Jacksonville Center
02:16PM 33.5867 -79.3647 38° Northeast 466 536 39,000  Level Jacksonville Center
02:17PM 33.6925 -79.2633 39° Northeast 472 543 39,000  Level Jacksonville Center
02:18PM 33.7939 -79.1617 40° Northeast 465 535 39,000  Level Jacksonville Center
02:19PM 33.8972 -79.0597 39° Northeast 460 529 39,000  Level Jacksonville Center
02:20PM 34.0003 -78.9575 39° Northeast 467 537 39,000  Level Jacksonville Center
02:21PM 34.1036 -78.8550 39° Northeast 467 537 39,000  Level Jacksonville Center
02:23PM 34.3250 -78.6347 39° Northeast 480 552 39,000  Level Washington Center
02:24PM 34.4258 -78.5303 40° Northeast 475 547 39,000  Level Washington Center
02:25PM 34.5242 -78.4331 39° Northeast 464 534 39,000  Level Washington Center
02:26PM 34.6286 -78.3356 38° Northeast 464 534 39,000  Level Washington Center
02:27PM 34.7369 -78.2508 33° Northeast 464 534 39,000  Level Washington Center
02:28PM 34.8539 -78.1533 34° Northeast 464 534 39,000  Level Washington Center
02:29PM 34.9578 -78.0653 35° Northeast 464 534 39,000  Level Washington Center
02:30PM 35.0681 -77.9800 32° Northeast 459 528 39,000  Level Washington Center
02:31PM 35.1761 -77.8942 33° Northeast 459 528 39,000  Level Washington Center
02:32PM 35.2822 -77.8056 34° Northeast 464 534 39,000  Level Washington Center
02:33PM 35.3903 -77.7194 33° Northeast 464 534 39,000  Level Washington Center
02:34PM 35.5003 -77.6331 33° Northeast 464 534 39,000  Level Washington Center
02:35PM 35.6081 -77.5464 33° Northeast 464 534 39,000  Level Washington Center
02:36PM 35.7139 -77.4569 34° Northeast 464 534 39,000  Level Washington Center
02:37PM 35.8194 -77.3722 33° Northeast 459 528 39,000  Level Washington Center
02:38PM 35.9228 -77.2875 34° Northeast 454 522 39,000  Level Washington Center
02:39PM 36.0306 -77.1997 33° Northeast 454 522 39,000  Level Washington Center
02:40PM 36.1192 -77.1219 35° Northeast 442 509 39,000  Level Washington Center
02:41PM 36.2203 -77.0389 34° Northeast 436 502 39,000  Level Washington Center
02:42PM 36.3236 -76.9531 34° Northeast 441 507 39,000  Level Washington Center
02:43PM 36.4289 -76.8672 33° Northeast 447 514 39,000  Level Washington Center
02:44PM 36.5319 -76.7783 35° Northeast 447 514 39,000  Level Washington Center
02:45PM 36.6350 -76.6944 33° Northeast 447 514 39,000  Level Washington Center
02:46PM 36.7486 -76.5925 36° Northeast 447 514 39,000  Level Washington Center
02:47PM 36.8514 -76.5056 34° Northeast 447 514 39,000  Level Washington Center
02:48PM 36.9522 -76.4208 34° Northeast 447 514 39,000  Level Washington Center
02:49PM 37.0531 -76.3336 35° Northeast 447 514 39,000  Level Washington Center
02:50PM 37.1536 -76.2458 35° Northeast 447 514 39,000  Level Washington Center
02:51PM 37.2542 -76.1633 33° Northeast 447 514 39,000  Level Washington Center
02:52PM 37.3483 -76.0883 32° Northeast 447 514 39,000  Level Washington Center
02:53PM 37.4489 -76.0025 34° Northeast 441 507 39,000  Level Washington Center
02:54PM 37.5492 -75.9139 35° Northeast 441 507 39,000  Level Washington Center
02:55PM 37.6494 -75.8253 35° Northeast 441 507 39,000  Level Washington Center
02:56PM 37.7517 -75.7389 34° Northeast 441 507 39,000  Level Washington Center
02:57PM 37.8519 -75.6497 35° Northeast 441 507 39,000  Level Washington Center
02:58PM 37.9519 -75.5628 34° Northeast 441 507 39,000  Level Washington Center
02:59PM 38.0522 -75.4758 34° Northeast 446 513 39,000  Level Washington Center
03:00PM 38.1625 -75.4069 26° Northeast 440 506 39,000  Level Washington Center
03:01PM 38.2689 -75.3353 28° Northeast 434 499 39,000  Level Washington Center
03:02PM 38.3853 -75.2553 28° Northeast 429 494 39,000  Level Washington Center
03:03PM 38.4831 -75.1619 37° Northeast 429 494 39,000  Level Washington Center
03:04PM 38.5786 -75.0686 37° Northeast 429 494 39,000  Level Washington Center
03:05PM 38.6761 -74.9775 36° Northeast 435 501 39,000 -300 Level Washington Center
03:06PM 38.7756 -74.8806 37° Northeast 435 501 38,500 -1,500 Descending Washington Center
03:07PM 38.8731 -74.7836 38° Northeast 435 501 36,100 -2,460 Descending Washington Center
03:08PM 38.9683 -74.6919 37° Northeast 435 501 33,600 -2,340 Descending Washington Center
03:09PM 39.0633 -74.5972 38° Northeast 429 494 31,500 -1,980 Descending Washington Center
03:11PM 39.1903 -74.4700 38° Northeast 423 487 28,700 -1,980 Descending New York Center
03:12PM 39.2806 -74.3864 36° Northeast 417 480 26,600 -2,040 Descending New York Center
03:13PM 39.3667 -74.3019 37° Northeast 403 464 24,600 -1,980 Descending New York Center
03:14PM 39.4461 -74.2172 39° Northeast 384 442 22,700 -1,860 Descending New York Center
03:15PM 39.5236 -74.1378 38° Northeast 366 421 21,000 -1,020 Descending New York Center
03:16PM 39.5911 -74.0358 49° Northeast 360 414 20,800 -600 Descending New York Center
03:17PM 39.6581 -73.9472 46° Northeast 349 402 19,800 -1,080 Descending New York Center
03:18PM 39.7381 -73.8456 44° Northeast 349 402 18,700 -1,140 Descending New York Center
03:19PM 39.7964 -73.7700 45° Northeast 344 396 17,600 -1,620 Descending New York Center
03:20PM 39.8653 -73.6781 46° Northeast 344 396 15,600 -2,040 Descending New York Center
03:21PM 39.9342 -73.5864 46° Northeast 344 396 13,600 -1,320 Descending New York Center
03:23PM 40.0811 -73.3947 45° Northeast 331 381 11,400 -1,080 Descending Boston Center
03:24PM 40.1444 -73.3114 45° Northeast 321 369 10,200 -840 Descending Boston Center
03:26PM 40.2348 -73.1447 55° Northeast  Level FlightAware Approximate
03:26PM 40.2600 -73.1581 55° Northeast 298 343 9,000  Level Boston Center
03:27PM 40.3147 -73.0822 47° Northeast 293 337 9,000  Level Boston Center
03:28PM 40.3714 -73.0067 45° Northeast 287 330 9,000 -780 Level Boston Center
03:30PM 40.5167 -72.9167 25° Northeast 279 321 6,800 -1,260 Descending New York TRACON
03:31PM 40.5833 -72.9500 339° North 262 302 5,500 -1,380 Descending New York TRACON
03:32PM 40.6167 -73.0167 303° West 249 287 4,100 -1,200 Descending New York TRACON
03:33PM 40.6667 -73.0833 315° West 238 274 3,200 -780 Descending New York TRACON
03:34PM 40.7000 -73.1500 303° West 215 247 2,700 -840 Descending New York TRACON
03:35PM 40.7333 -73.1667 339° North 162 186 1,600 -960 Descending New York TRACON
03:36PM 40.7667 -73.1333 37° Northeast 139 160 700 -900 Descending New York TRACON
03:38PM 40.7952 -73.1002 41° Northeast  Level Estimated